createdAt,value
2018-05-11T00:01:07.685Z,0
2018-05-11T00:02:17.655Z,0
2018-05-11T00:03:27.632Z,0
2018-05-11T00:04:37.621Z,0
2018-05-11T00:05:47.614Z,0
2018-05-11T00:06:57.593Z,0
2018-05-11T00:08:07.299Z,0
2018-05-11T00:09:17.042Z,0
2018-05-11T00:10:27.024Z,0
2018-05-11T00:11:36.995Z,0
2018-05-11T00:12:46.985Z,0
2018-05-11T00:13:56.452Z,0
2018-05-11T00:15:06.163Z,0
2018-05-11T00:16:15.876Z,0
2018-05-11T00:17:25.847Z,0
2018-05-11T00:18:35.564Z,0
2018-05-11T00:19:45.554Z,0
2018-05-11T00:20:55.532Z,0
2018-05-11T00:22:05.239Z,0
2018-05-11T00:23:14.948Z,0
2018-05-11T00:24:24.932Z,0
2018-05-11T00:25:34.920Z,0
2018-05-11T00:26:44.887Z,0
2018-05-11T00:27:54.864Z,0
2018-05-11T00:29:04.824Z,0
2018-05-11T00:30:14.805Z,0
2018-05-11T00:31:24.253Z,0
2018-05-11T00:32:34.235Z,0
2018-05-11T00:33:44.216Z,0
2018-05-11T00:34:54.190Z,0
2018-05-11T00:36:04.176Z,0
2018-05-11T00:37:14.144Z,0
2018-05-11T00:38:24.108Z,0
2018-05-11T00:39:34.070Z,0
2018-05-11T00:40:44.038Z,0
2018-05-11T00:41:54.016Z,0
2018-05-11T00:43:03.978Z,0
2018-05-11T00:44:13.951Z,0
2018-05-11T00:45:23.908Z,0
2018-05-11T00:46:33.892Z,0
2018-05-11T00:47:43.861Z,0
2018-05-11T00:48:53.576Z,0
2018-05-11T00:50:03.557Z,0
2018-05-11T00:51:13.666Z,0
2018-05-11T00:52:23.629Z,0
2018-05-11T00:53:33.612Z,0
2018-05-11T00:54:43.597Z,0
2018-05-11T00:55:53.568Z,0
2018-05-11T00:57:03.642Z,0
2018-05-11T00:58:13.102Z,0
2018-05-11T00:59:23.085Z,0
2018-05-11T01:00:32.286Z,0
2018-05-11T01:01:42.255Z,0
2018-05-11T01:02:52.241Z,0
2018-05-11T01:04:02.290Z,0
2018-05-11T01:05:12.015Z,0
2018-05-11T01:06:21.988Z,0
2018-05-11T01:07:31.705Z,0
2018-05-11T01:08:41.182Z,0
2018-05-11T01:09:50.634Z,0
2018-05-11T01:11:00.693Z,0
2018-05-11T01:12:10.657Z,0
2018-05-11T01:13:20.632Z,0
2018-05-11T01:14:30.393Z,0
2018-05-11T01:15:40.352Z,0
2018-05-11T01:16:50.187Z,0
2018-05-11T01:17:59.990Z,0
2018-05-11T01:19:09.697Z,0
2018-05-11T01:20:19.667Z,0
2018-05-11T01:21:29.695Z,0
2018-05-11T01:22:39.423Z,0
2018-05-11T01:23:49.148Z,0
2018-05-11T01:24:58.870Z,0
2018-05-11T01:26:08.585Z,0
2018-05-11T01:27:18.317Z,0
2018-05-11T01:28:28.295Z,0
2018-05-11T01:29:38.278Z,0
2018-05-11T01:30:48.267Z,0
2018-05-11T01:31:58.240Z,0
2018-05-11T01:33:08.204Z,0
2018-05-11T01:34:18.183Z,0
2018-05-11T01:35:28.177Z,0
2018-05-11T01:36:38.150Z,0
2018-05-11T01:37:47.867Z,0
2018-05-11T01:38:57.842Z,0
2018-05-11T01:40:07.830Z,0
2018-05-11T01:41:17.549Z,0
2018-05-11T01:42:27.590Z,0
2018-05-11T01:43:37.574Z,0
2018-05-11T01:44:47.547Z,0
2018-05-11T01:45:57.517Z,0
2018-05-11T01:47:07.499Z,0
2018-05-11T01:48:17.500Z,0
2018-05-11T01:49:27.204Z,0
2018-05-11T01:50:37.179Z,0
2018-05-11T01:51:47.226Z,0
2018-05-11T01:52:56.947Z,0
2018-05-11T01:54:07.028Z,0
2018-05-11T01:55:16.994Z,0
2018-05-11T01:56:26.721Z,0
2018-05-11T01:57:36.432Z,0
2018-05-11T01:58:46.404Z,0
2018-05-11T01:59:56.372Z,0
2018-05-11T02:01:06.357Z,0
2018-05-11T02:02:16.071Z,0
2018-05-11T02:03:25.780Z,0
2018-05-11T02:04:35.500Z,0
2018-05-11T02:05:45.482Z,0
2018-05-11T02:06:55.444Z,0
2018-05-11T02:08:05.416Z,0
2018-05-11T02:09:15.399Z,0
2018-05-11T02:10:24.849Z,0
2018-05-11T02:11:34.830Z,0
2018-05-11T02:12:44.606Z,0
2018-05-11T02:13:54.571Z,0
2018-05-11T02:15:03.760Z,0
2018-05-11T02:16:13.745Z,0
2018-05-11T02:17:23.709Z,0
2018-05-11T02:18:33.830Z,0
2018-05-11T02:19:43.880Z,0
2018-05-11T02:20:53.854Z,0
2018-05-11T02:22:03.576Z,0
2018-05-11T02:23:13.281Z,0
2018-05-11T02:24:23.349Z,0
2018-05-11T02:25:33.332Z,0
2018-05-11T02:26:43.303Z,0
2018-05-11T02:27:53.281Z,0
2018-05-11T02:29:02.984Z,0
2018-05-11T02:30:12.954Z,0
2018-05-11T02:31:22.930Z,0
2018-05-11T02:32:32.644Z,0
2018-05-11T02:33:42.623Z,0
2018-05-11T02:34:52.604Z,0
2018-05-11T02:36:02.602Z,0
2018-05-11T02:37:12.319Z,0
2018-05-11T02:38:22.027Z,0
2018-05-11T02:39:31.741Z,0
2018-05-11T02:40:41.717Z,4
2018-05-11T02:41:51.688Z,4
2018-05-11T02:43:01.410Z,4
2018-05-11T02:44:11.380Z,4
2018-05-11T02:45:21.127Z,4
2018-05-11T02:46:31.108Z,4
2018-05-11T02:47:41.092Z,4
2018-05-11T02:48:51.079Z,8
2018-05-11T02:50:00.821Z,4
2018-05-11T02:51:10.531Z,8
2018-05-11T02:52:20.255Z,8
2018-05-11T02:53:30.242Z,12
2018-05-11T02:54:39.950Z,12
2018-05-11T02:55:49.930Z,12
2018-05-11T02:56:59.915Z,12
2018-05-11T02:58:09.901Z,12
2018-05-11T02:59:19.868Z,12
2018-05-11T03:00:29.853Z,12
2018-05-11T03:01:39.825Z,16
2018-05-11T03:02:49.807Z,16
2018-05-11T03:03:59.795Z,20
2018-05-11T03:05:09.765Z,20
2018-05-11T03:06:19.747Z,20
2018-05-11T03:07:29.715Z,20
2018-05-11T03:08:39.427Z,24
2018-05-11T03:09:49.409Z,24
2018-05-11T03:10:59.389Z,24
2018-05-11T03:12:09.357Z,24
2018-05-11T03:13:19.326Z,28
2018-05-11T03:14:29.046Z,28
2018-05-11T03:15:39.029Z,32
2018-05-11T03:16:48.473Z,36
2018-05-11T03:17:58.466Z,40
2018-05-11T03:19:07.924Z,44
2018-05-11T03:20:17.899Z,44
2018-05-11T03:21:27.880Z,56
2018-05-11T03:22:37.857Z,64
2018-05-11T03:23:47.313Z,76
2018-05-11T03:24:57.281Z,76
2018-05-11T03:26:06.986Z,76
2018-05-11T03:27:16.433Z,72
2018-05-11T03:28:26.402Z,72
2018-05-11T03:29:36.372Z,72
2018-05-11T03:30:45.557Z,72
2018-05-11T03:31:55.280Z,84
2018-05-11T03:33:05.257Z,88
2018-05-11T03:34:15.227Z,96
2018-05-11T03:35:25.201Z,108
2018-05-11T03:36:34.916Z,128
2018-05-11T03:37:44.892Z,136
2018-05-11T03:38:54.872Z,152
2018-05-11T03:40:04.578Z,180
2018-05-11T03:41:14.583Z,240
2018-05-11T03:42:24.551Z,232
2018-05-11T03:43:34.032Z,216
2018-05-11T03:44:43.997Z,212
2018-05-11T03:45:53.713Z,272
2018-05-11T03:47:03.705Z,284
2018-05-11T03:48:13.684Z,288
2018-05-11T03:49:23.652Z,304
2018-05-11T03:50:33.675Z,316
2018-05-11T03:51:43.387Z,344
2018-05-11T03:52:53.411Z,364
2018-05-11T03:54:03.374Z,408
2018-05-11T03:55:13.344Z,420
2018-05-11T03:56:22.807Z,456
2018-05-11T03:57:32.779Z,464
2018-05-11T03:58:42.745Z,528
2018-05-11T03:59:52.739Z,600
2018-05-11T04:01:02.518Z,632
2018-05-11T04:02:12.483Z,608
2018-05-11T04:03:22.445Z,560
2018-05-11T04:04:32.520Z,600
2018-05-11T04:05:42.502Z,616
2018-05-11T04:06:52.219Z,664
2018-05-11T04:08:02.186Z,744
2018-05-11T04:09:11.637Z,848
2018-05-11T04:10:21.347Z,876
2018-05-11T04:11:31.320Z,864
2018-05-11T04:12:41.285Z,888
2018-05-11T04:13:51.244Z,960
2018-05-11T04:15:01.219Z,988
2018-05-11T04:16:10.949Z,1044
2018-05-11T04:17:20.923Z,1060
2018-05-11T04:18:30.891Z,1140
2018-05-11T04:19:40.348Z,1136
2018-05-11T04:20:50.623Z,1108
2018-05-11T04:22:00.613Z,1192
2018-05-11T04:23:10.322Z,1292
2018-05-11T04:24:20.042Z,1356
2018-05-11T04:25:29.764Z,1492
2018-05-11T04:26:39.752Z,1632
2018-05-11T04:27:49.717Z,1712
2018-05-11T04:28:59.424Z,1816
2018-05-11T04:30:09.509Z,2080
2018-05-11T04:31:19.231Z,2152
2018-05-11T04:32:28.688Z,2432
2018-05-11T04:33:38.664Z,2712
2018-05-11T04:34:48.626Z,2868
2018-05-11T04:35:58.334Z,3112
2018-05-11T04:37:08.302Z,3168
2018-05-11T04:38:18.332Z,3012
2018-05-11T04:39:28.369Z,3040
2018-05-11T04:40:38.333Z,3328
2018-05-11T04:41:48.305Z,3320
2018-05-11T04:42:58.285Z,3460
2018-05-11T04:44:08.249Z,3572
2018-05-11T04:45:18.402Z,3380
2018-05-11T04:46:27.951Z,3456
2018-05-11T04:47:37.923Z,3212
2018-05-11T04:48:47.629Z,2960
2018-05-11T04:49:57.595Z,2792
2018-05-11T04:51:07.561Z,2700
2018-05-11T04:52:17.535Z,2844
2018-05-11T04:53:27.251Z,2800
2018-05-11T04:54:36.948Z,2812
2018-05-11T04:55:46.935Z,2792
2018-05-11T04:56:56.922Z,2668
2018-05-11T04:58:06.644Z,2540
2018-05-11T04:59:16.634Z,2556
2018-05-11T05:00:26.615Z,2584
2018-05-11T05:01:36.586Z,2528
2018-05-11T05:02:46.553Z,2504
2018-05-11T05:03:56.267Z,2496
2018-05-11T05:05:05.995Z,2512
2018-05-11T05:06:15.713Z,2468
2018-05-11T05:07:25.424Z,2480
2018-05-11T05:08:35.395Z,2528
2018-05-11T05:09:45.359Z,2652
2018-05-11T05:10:55.073Z,2864
2018-05-11T05:12:05.058Z,3000
2018-05-11T05:13:14.521Z,3096
2018-05-11T05:14:24.504Z,3152
2018-05-11T05:15:34.465Z,3428
2018-05-11T05:16:44.441Z,3564
2018-05-11T05:17:54.159Z,3564
2018-05-11T05:19:03.954Z,3824
2018-05-11T05:20:13.715Z,3936
2018-05-11T05:21:23.420Z,4340
2018-05-11T05:22:32.884Z,4668
2018-05-11T05:23:42.600Z,4868
2018-05-11T05:24:52.566Z,4716
2018-05-11T05:26:02.282Z,4572
2018-05-11T05:27:11.991Z,4496
2018-05-11T05:28:21.965Z,4916
2018-05-11T05:29:31.768Z,5404
2018-05-11T05:30:41.218Z,5652
2018-05-11T05:31:51.253Z,5656
2018-05-11T05:33:01.313Z,5380
2018-05-11T05:34:11.396Z,5472
2018-05-11T05:35:21.099Z,6512
2018-05-11T05:36:30.824Z,6396
2018-05-11T05:37:40.791Z,6068
2018-05-11T05:38:50.773Z,6812
2018-05-11T05:40:00.483Z,6764
2018-05-11T05:41:10.455Z,6348
2018-05-11T05:42:20.437Z,6028
2018-05-11T05:43:30.404Z,6116
2018-05-11T05:44:40.147Z,6380
2018-05-11T05:45:50.300Z,6532
2018-05-11T05:47:00.354Z,6620
2018-05-11T05:48:10.085Z,6968
2018-05-11T05:49:20.056Z,7728
2018-05-11T05:50:30.041Z,8288
2018-05-11T05:51:39.748Z,8716
2018-05-11T05:52:49.755Z,9096
2018-05-11T05:53:59.740Z,8856
2018-05-11T05:55:09.806Z,8768
2018-05-11T05:56:19.803Z,8640
2018-05-11T05:57:29.768Z,8804
2018-05-11T05:58:39.226Z,8648
2018-05-11T05:59:49.200Z,7880
2018-05-11T06:00:59.258Z,8032
2018-05-11T06:02:09.226Z,8372
2018-05-11T06:03:18.680Z,8108
2018-05-11T06:04:28.643Z,8312
2018-05-11T06:05:38.413Z,8268
2018-05-11T06:06:48.377Z,8420
2018-05-11T06:07:58.354Z,8088
2018-05-11T06:09:08.442Z,7736
2018-05-11T06:10:18.162Z,7300
2018-05-11T06:11:28.135Z,7128
2018-05-11T06:12:38.157Z,6792
2018-05-11T06:13:48.141Z,6212
2018-05-11T06:14:58.126Z,6616
2018-05-11T06:16:08.094Z,6824
2018-05-11T06:17:18.063Z,7392
2018-05-11T06:18:28.046Z,7744
2018-05-11T06:19:38.031Z,7220
2018-05-11T06:20:47.995Z,6956
2018-05-11T06:21:58.079Z,6448
2018-05-11T06:23:08.203Z,5772
2018-05-11T06:24:18.196Z,5112
2018-05-11T06:25:27.899Z,4796
2018-05-11T06:26:37.637Z,4424
2018-05-11T06:27:47.366Z,4068
2018-05-11T06:28:57.334Z,3784
2018-05-11T06:30:07.065Z,3916
2018-05-11T06:31:16.824Z,4228
2018-05-11T06:32:26.584Z,4564
2018-05-11T06:33:36.036Z,5052
2018-05-11T06:34:46.007Z,5388
2018-05-11T06:35:55.732Z,5328
2018-05-11T06:37:05.445Z,5388
2018-05-11T06:38:15.430Z,5664
2018-05-11T06:39:25.147Z,6112
2018-05-11T06:40:35.240Z,6584
2018-05-11T06:41:45.037Z,6996
2018-05-11T06:42:55.022Z,7404
2018-05-11T06:44:04.740Z,7316
2018-05-11T06:45:14.449Z,7404
2018-05-11T06:46:24.410Z,7328
2018-05-11T06:47:34.380Z,6724
2018-05-11T06:48:44.668Z,6968
2018-05-11T06:49:54.640Z,6656
2018-05-11T06:51:04.619Z,6484
2018-05-11T06:52:14.357Z,6656
2018-05-11T06:53:24.342Z,6124
2018-05-11T06:54:34.302Z,5580
2018-05-11T06:55:44.270Z,5476
2018-05-11T06:56:54.040Z,5608
2018-05-11T06:58:04.054Z,6280
2018-05-11T06:59:14.035Z,6492
2018-05-11T07:00:24.013Z,6660
2018-05-11T07:01:33.774Z,6556
2018-05-11T07:02:43.772Z,6800
2018-05-11T07:03:53.758Z,7224
2018-05-11T07:05:03.752Z,7700
2018-05-11T07:06:13.756Z,8388
2018-05-11T07:07:23.962Z,9368
2018-05-11T07:08:33.934Z,10988
2018-05-11T07:09:43.902Z,13120
2018-05-11T07:10:53.871Z,14648
2018-05-11T07:12:03.586Z,15816
2018-05-11T07:13:13.309Z,16040
2018-05-11T07:14:23.023Z,14676
2018-05-11T07:15:32.743Z,12884
2018-05-11T07:16:42.711Z,11676
2018-05-11T07:17:52.702Z,11316
2018-05-11T07:19:02.419Z,11284
2018-05-11T07:20:12.130Z,10780
2018-05-11T07:21:22.118Z,9912
2018-05-11T07:22:32.350Z,9708
2018-05-11T07:23:42.122Z,9876
2018-05-11T07:24:51.844Z,9948
2018-05-11T07:26:01.823Z,9924
2018-05-11T07:27:11.790Z,9852
2018-05-11T07:28:21.761Z,9964
2018-05-11T07:29:31.745Z,11032
2018-05-11T07:30:41.736Z,11320
2018-05-11T07:31:51.702Z,12132
2018-05-11T07:33:01.687Z,12884
2018-05-11T07:34:11.401Z,12916
2018-05-11T07:35:20.860Z,12168
2018-05-11T07:36:30.572Z,12036
2018-05-11T07:37:40.291Z,12996
2018-05-11T07:38:49.756Z,13160
2018-05-11T07:39:59.749Z,13288
2018-05-11T07:41:09.475Z,13756
2018-05-11T07:42:19.189Z,14836
2018-05-11T07:43:29.388Z,16012
2018-05-11T07:44:39.322Z,16028
2018-05-11T07:45:49.030Z,14984
2018-05-11T07:46:58.747Z,13736
2018-05-11T07:48:08.777Z,12024
2018-05-11T07:49:18.764Z,10616
2018-05-11T07:50:28.743Z,10004
2018-05-11T07:51:39.043Z,9812
2018-05-11T07:52:49.066Z,10220
2018-05-11T07:53:59.070Z,10848
2018-05-11T07:55:08.813Z,11400
2018-05-11T07:56:18.539Z,12284
2018-05-11T07:57:28.542Z,13264
2018-05-11T07:58:38.520Z,14016
2018-05-11T07:59:48.231Z,14360
2018-05-11T08:00:58.205Z,14288
2018-05-11T08:02:08.224Z,14088
2018-05-11T08:03:17.955Z,14204
2018-05-11T08:04:27.962Z,14588
2018-05-11T08:05:37.427Z,14544
2018-05-11T08:06:47.402Z,14292
2018-05-11T08:07:57.119Z,14256
2018-05-11T08:09:07.099Z,14736
2018-05-11T08:10:16.817Z,15412
2018-05-11T08:11:26.784Z,16160
2018-05-11T08:12:36.247Z,17016
2018-05-11T08:13:46.223Z,17824
2018-05-11T08:14:55.936Z,17792
2018-05-11T08:16:05.652Z,17368
2018-05-11T08:17:15.626Z,16720
2018-05-11T08:18:25.095Z,16244
2018-05-11T08:19:34.806Z,16372
2018-05-11T08:20:44.523Z,16884
2018-05-11T08:21:54.512Z,17792
2018-05-11T08:23:04.492Z,18368
2018-05-11T08:24:14.221Z,18624
2018-05-11T08:25:24.216Z,18336
2018-05-11T08:26:34.246Z,16880
2018-05-11T08:27:44.388Z,15432
2018-05-11T08:28:54.367Z,14408
2018-05-11T08:30:03.827Z,13952
2018-05-11T08:31:13.314Z,13676
2018-05-11T08:32:23.304Z,13284
2018-05-11T08:33:33.029Z,12692
2018-05-11T08:34:42.740Z,12012
2018-05-11T08:35:52.667Z,11544
2018-05-11T08:37:02.768Z,11632
2018-05-11T08:38:12.482Z,12184
2018-05-11T08:39:22.196Z,12836
2018-05-11T08:40:31.655Z,13388
2018-05-11T08:41:41.625Z,13744
2018-05-11T08:42:51.624Z,13808
2018-05-11T08:44:01.599Z,13652
2018-05-11T08:45:11.572Z,13716
2018-05-11T08:46:21.630Z,14180
2018-05-11T08:47:31.710Z,14480
2018-05-11T08:48:41.677Z,14200
2018-05-11T08:49:51.640Z,13596
2018-05-11T08:51:01.372Z,13212
2018-05-11T08:52:11.084Z,13312
2018-05-11T08:53:21.058Z,13956
2018-05-11T08:54:31.034Z,15080
2018-05-11T08:55:41.008Z,16356
2018-05-11T08:56:51.000Z,17824
2018-05-11T08:58:00.980Z,19008
2018-05-11T08:59:10.966Z,20096
2018-05-11T09:00:20.951Z,21024
2018-05-11T09:01:30.667Z,21952
2018-05-11T09:02:40.478Z,23264
2018-05-11T09:03:50.189Z,24672
2018-05-11T09:05:00.181Z,24896
2018-05-11T09:06:10.148Z,23392
2018-05-11T09:07:20.127Z,21952
2018-05-11T09:08:30.447Z,20672
2018-05-11T09:09:40.503Z,19840
2018-05-11T09:10:50.471Z,20448
2018-05-11T09:12:00.457Z,22016
2018-05-11T09:13:10.427Z,22944
2018-05-11T09:14:20.424Z,23104
2018-05-11T09:15:30.220Z,23552
2018-05-11T09:16:39.700Z,24992
2018-05-11T09:17:49.671Z,28032
2018-05-11T09:18:59.383Z,31840
2018-05-11T09:20:09.365Z,33920
2018-05-11T09:21:19.469Z,34464
2018-05-11T09:22:29.517Z,34080
2018-05-11T09:23:39.253Z,33472
2018-05-11T09:24:49.230Z,32992
2018-05-11T09:25:58.986Z,32224
2018-05-11T09:27:09.064Z,31584
2018-05-11T09:28:19.037Z,31200
2018-05-11T09:29:29.028Z,29824
2018-05-11T09:30:39.007Z,27104
2018-05-11T09:31:49.019Z,25408
2018-05-11T09:32:59.079Z,25056
2018-05-11T09:34:09.067Z,25568
2018-05-11T09:35:19.044Z,25536
2018-05-11T09:36:29.019Z,24352
2018-05-11T09:37:39.011Z,22976
2018-05-11T09:38:48.998Z,22272
2018-05-11T09:39:59.215Z,22144
2018-05-11T09:41:09.180Z,22592
2018-05-11T09:42:19.174Z,23552
2018-05-11T09:43:28.904Z,24608
2018-05-11T09:44:38.871Z,25408
2018-05-11T09:45:48.600Z,25184
2018-05-11T09:46:58.319Z,24672
2018-05-11T09:48:07.767Z,25728
2018-05-11T09:49:17.740Z,28352
2018-05-11T09:50:27.477Z,30368
2018-05-11T09:51:37.450Z,31072
2018-05-11T09:52:47.420Z,31680
2018-05-11T09:53:57.393Z,32384
2018-05-11T09:55:07.431Z,32608
2018-05-11T09:56:17.572Z,31360
2018-05-11T09:57:27.303Z,29280
2018-05-11T09:58:37.034Z,28160
2018-05-11T09:59:46.779Z,28224
2018-05-11T10:00:56.571Z,28800
2018-05-11T10:02:06.660Z,29984
2018-05-11T10:03:16.661Z,31008
2018-05-11T10:04:26.649Z,32352
2018-05-11T10:05:36.390Z,33600
2018-05-11T10:06:46.433Z,34400
2018-05-11T10:07:56.350Z,35360
2018-05-11T10:09:06.369Z,35424
2018-05-11T10:10:16.360Z,37056
2018-05-11T10:11:26.350Z,39584
2018-05-11T10:12:36.351Z,40992
2018-05-11T10:13:46.525Z,44032
2018-05-11T10:14:56.620Z,48256
2018-05-11T10:16:06.628Z,53280
2018-05-11T10:17:16.346Z,54080
2018-05-11T10:18:26.331Z,55168
2018-05-11T10:19:36.356Z,58752
2018-05-11T10:20:46.481Z,57440
2018-05-11T10:21:55.951Z,54656
2018-05-11T10:23:05.933Z,49888
2018-05-11T10:24:15.662Z,44800
2018-05-11T10:25:25.654Z,38688
2018-05-11T10:26:35.378Z,34176
2018-05-11T10:27:45.371Z,31680
2018-05-11T10:28:55.047Z,29536
2018-05-11T10:30:04.891Z,27584
2018-05-11T10:31:14.885Z,26208
2018-05-11T10:32:24.868Z,25280
2018-05-11T10:33:34.853Z,24096
2018-05-11T10:34:44.844Z,21440
2018-05-11T10:35:54.834Z,20320
2018-05-11T10:37:04.558Z,20544
2018-05-11T10:38:13.759Z,21152
2018-05-11T10:39:23.734Z,21312
2018-05-11T10:40:33.446Z,20992
2018-05-11T10:41:43.162Z,20640
2018-05-11T10:42:53.133Z,20768
2018-05-11T10:44:03.115Z,20256
2018-05-11T10:45:12.565Z,20032
2018-05-11T10:46:22.550Z,19808
2018-05-11T10:47:32.273Z,19392
2018-05-11T10:48:42.718Z,18432
2018-05-11T10:49:52.535Z,17632
2018-05-11T10:51:02.254Z,17068
2018-05-11T10:52:12.252Z,16640
2018-05-11T10:53:21.962Z,16032
2018-05-11T10:54:31.701Z,15316
2018-05-11T10:55:41.427Z,15704
2018-05-11T10:56:51.162Z,17128
2018-05-11T10:58:01.136Z,18144
2018-05-11T10:59:11.131Z,18400
2018-05-11T11:00:21.121Z,18592
2018-05-11T11:01:31.106Z,18560
2018-05-11T11:02:40.829Z,18432
2018-05-11T11:03:50.828Z,18592
2018-05-11T11:05:00.805Z,19072
2018-05-11T11:06:10.527Z,19840
2018-05-11T11:07:20.256Z,20672
2018-05-11T11:08:29.961Z,21440
2018-05-11T11:09:39.944Z,21952
2018-05-11T11:10:49.918Z,22176
2018-05-11T11:11:59.917Z,22208
2018-05-11T11:13:09.899Z,21984
2018-05-11T11:14:19.359Z,21760
2018-05-11T11:15:29.337Z,21696
2018-05-11T11:16:39.065Z,21792
2018-05-11T11:17:48.785Z,22016
2018-05-11T11:18:58.772Z,22464
2018-05-11T11:20:09.148Z,22720
2018-05-11T11:21:18.866Z,23040
2018-05-11T11:22:28.842Z,23616
2018-05-11T11:23:38.836Z,24320
2018-05-11T11:24:48.811Z,25056
2018-05-11T11:25:58.997Z,25696
2018-05-11T11:27:09.309Z,26112
2018-05-11T11:28:19.077Z,26464
2018-05-11T11:29:29.060Z,26912
2018-05-11T11:30:39.124Z,27296
2018-05-11T11:31:49.097Z,27840
2018-05-11T11:32:58.830Z,28352
2018-05-11T11:34:08.298Z,28864
2018-05-11T11:35:18.298Z,29184
2018-05-11T11:36:28.293Z,29344
2018-05-11T11:37:38.277Z,28448
2018-05-11T11:38:48.364Z,27584
2018-05-11T11:39:58.340Z,29280
2018-05-11T11:41:08.612Z,30432
2018-05-11T11:42:18.944Z,30208
2018-05-11T11:43:28.949Z,28896
2018-05-11T11:44:38.929Z,26624
2018-05-11T11:45:48.911Z,23968
2018-05-11T11:46:58.909Z,22336
2018-05-11T11:48:08.889Z,22272
2018-05-11T11:49:18.615Z,23680
2018-05-11T11:50:28.583Z,25472
2018-05-11T11:51:38.293Z,26336
2018-05-11T11:52:48.283Z,25280
2018-05-11T11:53:58.009Z,23712
2018-05-11T11:55:07.738Z,23136
2018-05-11T11:56:17.563Z,23200
2018-05-11T11:57:27.558Z,22784
2018-05-11T11:58:37.536Z,21632
2018-05-11T11:59:47.529Z,19968
2018-05-11T12:00:57.259Z,20512
2018-05-11T12:02:07.315Z,22944
2018-05-11T12:03:17.319Z,23616
2018-05-11T12:04:27.052Z,21760
2018-05-11T12:05:37.056Z,19968
2018-05-11T12:06:46.790Z,19104
2018-05-11T12:07:56.782Z,18752
2018-05-11T12:09:07.058Z,18880
2018-05-11T12:10:17.047Z,19072
2018-05-11T12:11:27.032Z,19168
2018-05-11T12:12:36.746Z,19328
2018-05-11T12:13:46.458Z,19296
2018-05-11T12:14:56.430Z,19040
2018-05-11T12:16:06.414Z,18688
2018-05-11T12:17:16.401Z,18304
2018-05-11T12:18:26.114Z,17984
2018-05-11T12:19:36.091Z,18080
2018-05-11T12:20:45.813Z,18528
2018-05-11T12:21:55.787Z,19168
2018-05-11T12:23:05.534Z,19968
2018-05-11T12:24:15.519Z,21056
2018-05-11T12:25:25.246Z,22208
2018-05-11T12:26:35.392Z,22720
2018-05-11T12:27:45.364Z,22464
2018-05-11T12:28:55.113Z,21600
2018-05-11T12:30:05.104Z,20736
2018-05-11T12:31:15.096Z,20032
2018-05-11T12:32:25.079Z,19552
2018-05-11T12:33:34.804Z,19008
2018-05-11T12:34:44.263Z,18368
2018-05-11T12:35:54.325Z,17664
2018-05-11T12:37:04.384Z,16844
2018-05-11T12:38:14.374Z,16140
2018-05-11T12:39:24.095Z,15352
2018-05-11T12:40:34.058Z,14540
2018-05-11T12:41:44.063Z,13904
2018-05-11T12:42:54.050Z,13532
2018-05-11T12:44:04.044Z,13388
2018-05-11T12:45:13.761Z,13332
2018-05-11T12:46:23.488Z,13368
2018-05-11T12:47:33.489Z,13456
2018-05-11T12:48:43.487Z,13584
2018-05-11T12:49:52.961Z,13756
2018-05-11T12:51:02.928Z,13900
2018-05-11T12:52:12.683Z,13936
2018-05-11T12:53:22.649Z,13912
2018-05-11T12:54:32.639Z,13940
2018-05-11T12:55:42.627Z,14088
2018-05-11T12:56:52.605Z,14340
2018-05-11T12:58:02.397Z,14636
2018-05-11T12:59:12.127Z,14952
2018-05-11T13:00:22.115Z,15192
2018-05-11T13:01:32.086Z,15280
2018-05-11T13:02:41.810Z,15316
2018-05-11T13:03:51.524Z,15368
2018-05-11T13:05:01.511Z,15472
2018-05-11T13:06:11.480Z,15688
2018-05-11T13:07:21.364Z,15740
2018-05-11T13:08:31.380Z,15348
2018-05-11T13:09:41.367Z,14640
2018-05-11T13:10:51.354Z,13920
2018-05-11T13:12:01.339Z,13252
2018-05-11T13:13:11.318Z,12672
2018-05-11T13:14:21.436Z,12316
2018-05-11T13:15:31.414Z,12236
2018-05-11T13:16:41.385Z,12368
2018-05-11T13:17:50.856Z,12568
2018-05-11T13:19:00.586Z,12824
2018-05-11T13:20:10.573Z,13192
2018-05-11T13:21:20.577Z,13564
2018-05-11T13:22:30.302Z,13764
2018-05-11T13:23:39.775Z,13848
2018-05-11T13:24:49.758Z,13836
2018-05-11T13:25:59.486Z,13796
2018-05-11T13:27:09.222Z,13748
2018-05-11T13:28:18.685Z,13668
2018-05-11T13:29:28.666Z,13524
2018-05-11T13:30:39.315Z,13336
2018-05-11T13:31:49.512Z,13180
2018-05-11T13:32:59.240Z,13148
2018-05-11T13:34:09.220Z,13192
2018-05-11T13:35:19.251Z,13200
2018-05-11T13:36:29.554Z,13108
2018-05-11T13:37:39.488Z,12984
2018-05-11T13:38:49.471Z,13016
2018-05-11T13:39:59.455Z,13308
2018-05-11T13:41:09.181Z,13780
2018-05-11T13:42:19.381Z,14288
2018-05-11T13:43:29.107Z,14752
2018-05-11T13:44:39.086Z,15132
2018-05-11T13:45:49.071Z,15348
2018-05-11T13:46:58.802Z,15392
2018-05-11T13:48:08.873Z,15344
2018-05-11T13:49:19.065Z,15252
2018-05-11T13:50:29.072Z,15176
2018-05-11T13:51:39.048Z,15108
2018-05-11T13:52:48.770Z,15024
2018-05-11T13:53:58.833Z,14912
2018-05-11T13:55:08.807Z,14724
2018-05-11T13:56:18.808Z,14380
2018-05-11T13:57:29.052Z,13956
2018-05-11T13:58:39.032Z,13608
2018-05-11T13:59:49.013Z,13416
2018-05-11T14:00:58.744Z,13392
2018-05-11T14:02:08.750Z,13476
2018-05-11T14:03:18.752Z,13540
2018-05-11T14:04:28.740Z,13524
2018-05-11T14:05:38.834Z,13428
2018-05-11T14:06:48.834Z,13248
2018-05-11T14:07:58.819Z,13020
2018-05-11T14:09:08.835Z,12780
2018-05-11T14:10:18.986Z,12628
2018-05-11T14:11:29.250Z,12616
2018-05-11T14:12:39.215Z,12712
2018-05-11T14:13:49.199Z,12836
2018-05-11T14:14:59.175Z,12904
2018-05-11T14:16:09.168Z,13040
2018-05-11T14:17:19.152Z,13324
2018-05-11T14:18:28.606Z,13660
2018-05-11T14:19:38.322Z,13984
2018-05-11T14:20:48.036Z,14244
2018-05-11T14:21:58.025Z,14436
2018-05-11T14:23:08.018Z,14600
2018-05-11T14:24:17.989Z,14688
2018-05-11T14:25:27.998Z,14808
2018-05-11T14:26:37.457Z,15112
2018-05-11T14:27:47.450Z,15548
2018-05-11T14:28:57.178Z,16112
2018-05-11T14:30:07.174Z,16704
2018-05-11T14:31:17.159Z,17408
2018-05-11T14:32:27.159Z,17760
2018-05-11T14:33:36.882Z,18048
2018-05-11T14:34:46.861Z,18208
2018-05-11T14:35:56.579Z,18400
2018-05-11T14:37:06.085Z,18592
2018-05-11T14:38:16.068Z,18944
2018-05-11T14:39:26.513Z,19488
2018-05-11T14:40:35.978Z,20288
2018-05-11T14:41:45.695Z,20928
2018-05-11T14:42:55.679Z,21184
2018-05-11T14:44:05.653Z,21152
2018-05-11T14:45:15.642Z,21088
2018-05-11T14:46:25.632Z,21120
2018-05-11T14:47:35.108Z,21120
2018-05-11T14:48:45.109Z,20928
2018-05-11T14:49:54.820Z,20320
2018-05-11T14:51:04.805Z,19328
2018-05-11T14:52:14.526Z,18336
2018-05-11T14:53:24.251Z,17760
2018-05-11T14:54:34.230Z,17472
2018-05-11T14:55:44.229Z,17312
2018-05-11T14:56:54.208Z,17216
2018-05-11T14:58:03.943Z,16908
2018-05-11T14:59:13.671Z,16688
2018-05-11T15:00:23.667Z,16552
2018-05-11T15:01:33.390Z,16516
2018-05-11T15:02:43.122Z,16256
2018-05-11T15:03:52.833Z,15964
2018-05-11T15:05:02.831Z,15704
2018-05-11T15:06:12.844Z,15476
2018-05-11T15:07:22.582Z,15368
2018-05-11T15:08:32.298Z,15348
2018-05-11T15:09:42.284Z,15428
2018-05-11T15:10:52.270Z,15556
2018-05-11T15:12:02.267Z,15680
2018-05-11T15:13:12.323Z,15764
2018-05-11T15:14:22.051Z,15740
2018-05-11T15:15:31.723Z,15572
2018-05-11T15:16:41.460Z,15344
2018-05-11T15:17:51.192Z,15080
2018-05-11T15:19:01.182Z,14964
2018-05-11T15:20:11.170Z,15100
2018-05-11T15:21:20.914Z,15488
2018-05-11T15:22:30.643Z,16060
2018-05-11T15:23:40.650Z,16604
2018-05-11T15:24:50.644Z,16944
2018-05-11T15:26:00.677Z,17248
2018-05-11T15:27:10.397Z,16952
2018-05-11T15:28:20.406Z,16888
2018-05-11T15:29:30.248Z,16944
2018-05-11T15:30:40.238Z,17040
2018-05-11T15:31:50.219Z,17280
2018-05-11T15:32:59.928Z,17012
2018-05-11T15:34:09.915Z,16820
2018-05-11T15:35:19.630Z,16520